sensor_id;sensor_type;location;lat;lon;timestamp;temperature;humidity
20492;DHT22;10404;51.468;6.762;2023-08-06T00:02:13;17.50;69.20
20492;DHT22;10404;51.468;6.762;2023-08-06T00:04:38;17.50;69.30
20492;DHT22;10404;51.468;6.762;2023-08-06T00:07:04;17.50;69.30
20492;DHT22;10404;51.468;6.762;2023-08-06T00:09:30;17.50;69.20
20492;DHT22;10404;51.468;6.762;2023-08-06T00:11:55;17.40;69.30
20492;DHT22;10404;51.468;6.762;2023-08-06T00:14:21;17.40;69.30
20492;DHT22;10404;51.468;6.762;2023-08-06T00:16:46;17.40;69.30
20492;DHT22;10404;51.468;6.762;2023-08-06T00:19:12;17.40;69.40
20492;DHT22;10404;51.468;6.762;2023-08-06T00:21:38;17.40;69.40
20492;DHT22;10404;51.468;6.762;2023-08-06T00:24:03;17.40;69.40
20492;DHT22;10404;51.468;6.762;2023-08-06T00:26:29;17.40;69.50
20492;DHT22;10404;51.468;6.762;2023-08-06T00:28:54;17.30;69.50
20492;DHT22;10404;51.468;6.762;2023-08-06T00:31:20;17.30;69.40
20492;DHT22;10404;51.468;6.762;2023-08-06T00:33:46;17.30;69.40
20492;DHT22;10404;51.468;6.762;2023-08-06T00:36:11;17.30;69.50
20492;DHT22;10404;51.468;6.762;2023-08-06T00:38:37;17.20;69.50
20492;DHT22;10404;51.468;6.762;2023-08-06T00:41:02;17.20;69.50
20492;DHT22;10404;51.468;6.762;2023-08-06T00:43:28;17.20;69.50
20492;DHT22;10404;51.468;6.762;2023-08-06T00:45:54;17.20;69.60
20492;DHT22;10404;51.468;6.762;2023-08-06T00:48:20;17.20;69.60
20492;DHT22;10404;51.468;6.762;2023-08-06T00:50:46;17.20;69.60
20492;DHT22;10404;51.468;6.762;2023-08-06T00:53:11;17.20;69.70
20492;DHT22;10404;51.468;6.762;2023-08-06T00:55:37;17.20;69.80
20492;DHT22;10404;51.468;6.762;2023-08-06T00:58:03;17.20;69.70
20492;DHT22;10404;51.468;6.762;2023-08-06T01:00:29;17.20;69.80
20492;DHT22;10404;51.468;6.762;2023-08-06T01:02:55;17.10;69.80
20492;DHT22;10404;51.468;6.762;2023-08-06T01:05:22;17.20;69.80
20492;DHT22;10404;51.468;6.762;2023-08-06T01:13:34;17.00;69.90
20492;DHT22;10404;51.468;6.762;2023-08-06T01:16:03;17.00;69.80
20492;DHT22;10404;51.468;6.762;2023-08-06T01:18:31;17.00;69.80
20492;DHT22;10404;51.468;6.762;2023-08-06T01:20:57;17.00;69.80
20492;DHT22;10404;51.468;6.762;2023-08-06T01:23:23;17.00;69.90
20492;DHT22;10404;51.468;6.762;2023-08-06T01:25:57;17.00;69.90
20492;DHT22;10404;51.468;6.762;2023-08-06T01:28:54;17.00;69.90
20492;DHT22;10404;51.468;6.762;2023-08-06T01:31:29;17.00;69.90
20492;DHT22;10404;51.468;6.762;2023-08-06T01:33:56;17.00;69.90
20492;DHT22;10404;51.468;6.762;2023-08-06T01:36:23;17.00;70.00
20492;DHT22;10404;51.468;6.762;2023-08-06T01:38:51;17.00;70.00
20492;DHT22;10404;51.468;6.762;2023-08-06T01:41:17;17.00;70.00
20492;DHT22;10404;51.468;6.762;2023-08-06T01:43:42;17.00;70.00
20492;DHT22;10404;51.468;6.762;2023-08-06T01:46:08;16.90;70.00
20492;DHT22;10404;51.468;6.762;2023-08-06T01:48:33;16.90;70.10
20492;DHT22;10404;51.468;6.762;2023-08-06T01:50:59;16.90;70.10
20492;DHT22;10404;51.468;6.762;2023-08-06T01:53:24;16.90;70.10
20492;DHT22;10404;51.468;6.762;2023-08-06T01:55:50;16.90;70.00
20492;DHT22;10404;51.468;6.762;2023-08-06T01:58:16;16.90;70.10
20492;DHT22;10404;51.468;6.762;2023-08-06T02:00:41;16.90;70.10
20492;DHT22;10404;51.468;6.762;2023-08-06T02:03:07;16.80;70.20
20492;DHT22;10404;51.468;6.762;2023-08-06T02:05:32;16.80;70.10
20492;DHT22;10404;51.468;6.762;2023-08-06T02:07:58;16.80;70.40
20492;DHT22;10404;51.468;6.762;2023-08-06T02:10:23;16.80;70.40
20492;DHT22;10404;51.468;6.762;2023-08-06T02:12:49;16.80;70.30
20492;DHT22;10404;51.468;6.762;2023-08-06T02:15:15;16.80;70.40
20492;DHT22;10404;51.468;6.762;2023-08-06T02:17:40;16.80;70.40
20492;DHT22;10404;51.468;6.762;2023-08-06T02:20:06;16.80;70.50
20492;DHT22;10404;51.468;6.762;2023-08-06T02:22:32;16.80;70.50
20492;DHT22;10404;51.468;6.762;2023-08-06T02:24:58;16.80;70.50
20492;DHT22;10404;51.468;6.762;2023-08-06T02:27:24;16.70;70.60
20492;DHT22;10404;51.468;6.762;2023-08-06T02:29:50;16.70;70.50
20492;DHT22;10404;51.468;6.762;2023-08-06T02:32:15;16.70;70.50
20492;DHT22;10404;51.468;6.762;2023-08-06T02:34:41;16.70;70.50
20492;DHT22;10404;51.468;6.762;2023-08-06T02:37:06;16.70;70.50
20492;DHT22;10404;51.468;6.762;2023-08-06T02:39:32;16.70;70.50
20492;DHT22;10404;51.468;6.762;2023-08-06T02:41:59;16.70;70.60
20492;DHT22;10404;51.468;6.762;2023-08-06T02:44:27;16.70;70.60
20492;DHT22;10404;51.468;6.762;2023-08-06T02:46:53;16.70;70.80
20492;DHT22;10404;51.468;6.762;2023-08-06T02:49:18;16.70;70.60
20492;DHT22;10404;51.468;6.762;2023-08-06T02:51:47;16.60;70.60
20492;DHT22;10404;51.468;6.762;2023-08-06T02:54:12;16.60;70.60
20492;DHT22;10404;51.468;6.762;2023-08-06T02:56:38;16.60;70.60
20492;DHT22;10404;51.468;6.762;2023-08-06T02:59:04;16.60;70.70
20492;DHT22;10404;51.468;6.762;2023-08-06T03:01:29;16.60;70.70
20492;DHT22;10404;51.468;6.762;2023-08-06T03:03:55;16.60;70.70
20492;DHT22;10404;51.468;6.762;2023-08-06T03:06:21;16.60;70.70
20492;DHT22;10404;51.468;6.762;2023-08-06T03:08:46;16.60;70.70
20492;DHT22;10404;51.468;6.762;2023-08-06T03:11:12;16.60;70.70
20492;DHT22;10404;51.468;6.762;2023-08-06T03:13:37;16.60;70.70
20492;DHT22;10404;51.468;6.762;2023-08-06T03:16:03;16.50;70.70
20492;DHT22;10404;51.468;6.762;2023-08-06T03:18:28;16.50;70.80
20492;DHT22;10404;51.468;6.762;2023-08-06T03:20:54;16.50;70.80
20492;DHT22;10404;51.468;6.762;2023-08-06T03:23:20;16.50;70.90
20492;DHT22;10404;51.468;6.762;2023-08-06T03:25:46;16.50;70.90
20492;DHT22;10404;51.468;6.762;2023-08-06T03:28:12;16.50;70.80
20492;DHT22;10404;51.468;6.762;2023-08-06T03:30:38;16.50;70.90
20492;DHT22;10404;51.468;6.762;2023-08-06T03:33:04;16.40;70.90
20492;DHT22;10404;51.468;6.762;2023-08-06T03:35:29;16.40;71.00
20492;DHT22;10404;51.468;6.762;2023-08-06T03:37:55;16.40;70.90
20492;DHT22;10404;51.468;6.762;2023-08-06T03:40:21;16.40;70.90
20492;DHT22;10404;51.468;6.762;2023-08-06T03:42:46;16.40;71.00
20492;DHT22;10404;51.468;6.762;2023-08-06T03:45:12;16.40;70.90
20492;DHT22;10404;51.468;6.762;2023-08-06T03:47:37;16.40;71.00
20492;DHT22;10404;51.468;6.762;2023-08-06T03:50:03;16.40;71.10
20492;DHT22;10404;51.468;6.762;2023-08-06T03:52:29;16.40;71.10
20492;DHT22;10404;51.468;6.762;2023-08-06T03:54:55;16.40;71.10
20492;DHT22;10404;51.468;6.762;2023-08-06T03:57:20;16.40;71.00
20492;DHT22;10404;51.468;6.762;2023-08-06T03:59:46;16.40;71.10
20492;DHT22;10404;51.468;6.762;2023-08-06T04:02:11;16.40;71.10
20492;DHT22;10404;51.468;6.762;2023-08-06T04:04:37;16.40;71.10
20492;DHT22;10404;51.468;6.762;2023-08-06T04:07:03;16.30;71.10
20492;DHT22;10404;51.468;6.762;2023-08-06T04:09:29;16.30;71.20
20492;DHT22;10404;51.468;6.762;2023-08-06T04:11:55;16.30;71.20
20492;DHT22;10404;51.468;6.762;2023-08-06T04:14:21;16.30;71.10
20492;DHT22;10404;51.468;6.762;2023-08-06T04:16:47;16.20;71.20
20492;DHT22;10404;51.468;6.762;2023-08-06T04:19:12;16.20;71.30
20492;DHT22;10404;51.468;6.762;2023-08-06T04:21:38;16.20;71.30
20492;DHT22;10404;51.468;6.762;2023-08-06T04:24:03;16.20;71.30
20492;DHT22;10404;51.468;6.762;2023-08-06T04:26:29;16.20;71.30
20492;DHT22;10404;51.468;6.762;2023-08-06T04:28:54;16.20;71.30
20492;DHT22;10404;51.468;6.762;2023-08-06T04:31:21;16.20;71.30
20492;DHT22;10404;51.468;6.762;2023-08-06T04:33:46;16.20;71.40
20492;DHT22;10404;51.468;6.762;2023-08-06T04:36:12;16.20;71.30
20492;DHT22;10404;51.468;6.762;2023-08-06T04:38:37;16.10;71.40
20492;DHT22;10404;51.468;6.762;2023-08-06T04:41:04;16.10;71.40
20492;DHT22;10404;51.468;6.762;2023-08-06T04:43:29;16.10;71.40
20492;DHT22;10404;51.468;6.762;2023-08-06T04:45:55;16.10;71.50
20492;DHT22;10404;51.468;6.762;2023-08-06T04:48:22;16.10;71.50
20492;DHT22;10404;51.468;6.762;2023-08-06T04:50:49;16.10;71.40
20492;DHT22;10404;51.468;6.762;2023-08-06T04:53:15;16.10;71.40
20492;DHT22;10404;51.468;6.762;2023-08-06T04:55:41;16.10;71.30
20492;DHT22;10404;51.468;6.762;2023-08-06T04:58:08;16.10;71.30
20492;DHT22;10404;51.468;6.762;2023-08-06T05:00:34;16.10;71.30
20492;DHT22;10404;51.468;6.762;2023-08-06T05:03:00;16.10;71.40
20492;DHT22;10404;51.468;6.762;2023-08-06T05:05:27;16.10;71.40
20492;DHT22;10404;51.468;6.762;2023-08-06T05:07:55;16.10;71.40
20492;DHT22;10404;51.468;6.762;2023-08-06T05:10:20;16.10;71.30
20492;DHT22;10404;51.468;6.762;2023-08-06T05:12:46;16.10;71.30
20492;DHT22;10404;51.468;6.762;2023-08-06T05:15:12;16.00;71.30
20492;DHT22;10404;51.468;6.762;2023-08-06T05:17:37;16.00;71.30
20492;DHT22;10404;51.468;6.762;2023-08-06T05:20:03;16.00;71.30
20492;DHT22;10404;51.468;6.762;2023-08-06T05:22:29;16.00;71.40
20492;DHT22;10404;51.468;6.762;2023-08-06T05:24:55;16.00;71.50
20492;DHT22;10404;51.468;6.762;2023-08-06T05:27:20;16.00;71.60
20492;DHT22;10404;51.468;6.762;2023-08-06T05:29:48;16.00;71.60
20492;DHT22;10404;51.468;6.762;2023-08-06T05:32:13;16.00;71.60
20492;DHT22;10404;51.468;6.762;2023-08-06T05:34:39;16.00;71.60
20492;DHT22;10404;51.468;6.762;2023-08-06T05:37:05;16.00;71.70
20492;DHT22;10404;51.468;6.762;2023-08-06T05:39:30;16.00;71.60
20492;DHT22;10404;51.468;6.762;2023-08-06T05:41:56;16.00;71.70
20492;DHT22;10404;51.468;6.762;2023-08-06T05:44:23;16.00;71.60
20492;DHT22;10404;51.468;6.762;2023-08-06T05:46:49;16.00;71.80
20492;DHT22;10404;51.468;6.762;2023-08-06T05:49:15;16.00;71.70
20492;DHT22;10404;51.468;6.762;2023-08-06T05:51:41;16.10;71.50
20492;DHT22;10404;51.468;6.762;2023-08-06T05:54:06;16.00;71.80
20492;DHT22;10404;51.468;6.762;2023-08-06T05:56:32;16.00;72.30
20492;DHT22;10404;51.468;6.762;2023-08-06T05:58:57;16.00;72.20
20492;DHT22;10404;51.468;6.762;2023-08-06T06:01:23;16.00;72.50
20492;DHT22;10404;51.468;6.762;2023-08-06T06:03:48;16.00;72.40
20492;DHT22;10404;51.468;6.762;2023-08-06T06:06:14;16.00;72.50
20492;DHT22;10404;51.468;6.762;2023-08-06T06:08:41;16.00;72.70
20492;DHT22;10404;51.468;6.762;2023-08-06T06:11:06;16.00;72.50
20492;DHT22;10404;51.468;6.762;2023-08-06T06:13:32;16.00;72.50
20492;DHT22;10404;51.468;6.762;2023-08-06T06:15:57;16.00;72.70
20492;DHT22;10404;51.468;6.762;2023-08-06T06:18:23;16.10;72.70
20492;DHT22;10404;51.468;6.762;2023-08-06T06:20:49;16.10;72.80
20492;DHT22;10404;51.468;6.762;2023-08-06T06:23:14;16.10;72.90
20492;DHT22;10404;51.468;6.762;2023-08-06T06:25:43;16.20;72.70
20492;DHT22;10404;51.468;6.762;2023-08-06T06:28:09;16.20;72.60
20492;DHT22;10404;51.468;6.762;2023-08-06T06:30:34;16.20;72.80
20492;DHT22;10404;51.468;6.762;2023-08-06T06:33:00;16.30;72.50
20492;DHT22;10404;51.468;6.762;2023-08-06T06:35:25;16.40;72.40
20492;DHT22;10404;51.468;6.762;2023-08-06T06:37:51;16.40;72.30
20492;DHT22;10404;51.468;6.762;2023-08-06T06:40:16;16.60;72.10
20492;DHT22;10404;51.468;6.762;2023-08-06T06:42:42;16.90;71.10
20492;DHT22;10404;51.468;6.762;2023-08-06T06:45:08;17.00;70.70
20492;DHT22;10404;51.468;6.762;2023-08-06T06:47:34;17.00;71.00
20492;DHT22;10404;51.468;6.762;2023-08-06T06:50:00;16.90;71.00
20492;DHT22;10404;51.468;6.762;2023-08-06T06:52:25;17.00;70.90
20492;DHT22;10404;51.468;6.762;2023-08-06T06:54:51;17.10;70.90
20492;DHT22;10404;51.468;6.762;2023-08-06T06:57:16;17.20;70.60
20492;DHT22;10404;51.468;6.762;2023-08-06T06:59:42;17.50;70.00
20492;DHT22;10404;51.468;6.762;2023-08-06T07:02:07;17.90;68.90
20492;DHT22;10404;51.468;6.762;2023-08-06T07:04:33;18.00;68.70
20492;DHT22;10404;51.468;6.762;2023-08-06T07:06:58;18.10;68.50
20492;DHT22;10404;51.468;6.762;2023-08-06T07:09:24;18.30;68.00
20492;DHT22;10404;51.468;6.762;2023-08-06T07:11:50;18.60;67.30
20492;DHT22;10404;51.468;6.762;2023-08-06T07:14:16;19.10;66.20
20492;DHT22;10404;51.468;6.762;2023-08-06T07:16:42;19.40;65.50
20492;DHT22;10404;51.468;6.762;2023-08-06T07:19:08;19.40;65.20
20492;DHT22;10404;51.468;6.762;2023-08-06T07:21:33;19.40;65.40
20492;DHT22;10404;51.468;6.762;2023-08-06T07:23:59;19.50;65.50
20492;DHT22;10404;51.468;6.762;2023-08-06T07:26:25;19.70;65.20
20492;DHT22;10404;51.468;6.762;2023-08-06T07:28:50;19.70;65.50
20492;DHT22;10404;51.468;6.762;2023-08-06T07:31:16;19.50;66.10
20492;DHT22;10404;51.468;6.762;2023-08-06T07:33:41;19.30;66.70
20492;DHT22;10404;51.468;6.762;2023-08-06T07:36:08;19.20;67.50
20492;DHT22;10404;51.468;6.762;2023-08-06T07:38:34;19.00;68.10
20492;DHT22;10404;51.468;6.762;2023-08-06T07:41:02;18.90;68.50
20492;DHT22;10404;51.468;6.762;2023-08-06T07:43:27;18.80;69.30
20492;DHT22;10404;51.468;6.762;2023-08-06T07:45:53;18.70;69.40
20492;DHT22;10404;51.468;6.762;2023-08-06T07:48:18;18.70;70.00
20492;DHT22;10404;51.468;6.762;2023-08-06T07:50:44;18.60;70.00
20492;DHT22;10404;51.468;6.762;2023-08-06T07:53:15;18.60;70.40
20492;DHT22;10404;51.468;6.762;2023-08-06T07:55:42;18.60;70.40
20492;DHT22;10404;51.468;6.762;2023-08-06T07:58:08;18.70;70.40
20492;DHT22;10404;51.468;6.762;2023-08-06T08:00:33;18.70;70.40
20492;DHT22;10404;51.468;6.762;2023-08-06T08:02:59;18.80;70.30
20492;DHT22;10404;51.468;6.762;2023-08-06T08:05:24;18.80;70.30
20492;DHT22;10404;51.468;6.762;2023-08-06T08:07:50;18.80;70.50
20492;DHT22;10404;51.468;6.762;2023-08-06T08:10:15;18.80;70.60
20492;DHT22;10404;51.468;6.762;2023-08-06T08:12:41;18.80;70.40
20492;DHT22;10404;51.468;6.762;2023-08-06T08:15:08;18.80;70.40
20492;DHT22;10404;51.468;6.762;2023-08-06T08:17:33;18.80;70.30
20492;DHT22;10404;51.468;6.762;2023-08-06T08:19:59;18.80;70.60
20492;DHT22;10404;51.468;6.762;2023-08-06T08:22:25;18.80;70.50
20492;DHT22;10404;51.468;6.762;2023-08-06T08:24:51;18.70;71.40
20492;DHT22;10404;51.468;6.762;2023-08-06T08:27:16;18.70;71.40
20492;DHT22;10404;51.468;6.762;2023-08-06T08:29:42;18.70;71.40
20492;DHT22;10404;51.468;6.762;2023-08-06T08:32:07;18.70;71.80
20492;DHT22;10404;51.468;6.762;2023-08-06T08:34:33;18.70;71.20
20492;DHT22;10404;51.468;6.762;2023-08-06T08:36:58;18.70;71.10
20492;DHT22;10404;51.468;6.762;2023-08-06T08:39:24;18.70;71.20
20492;DHT22;10404;51.468;6.762;2023-08-06T08:41:49;18.70;71.00
20492;DHT22;10404;51.468;6.762;2023-08-06T08:44:16;18.70;71.30
20492;DHT22;10404;51.468;6.762;2023-08-06T08:46:43;18.70;71.30
20492;DHT22;10404;51.468;6.762;2023-08-06T08:49:09;18.70;71.00
20492;DHT22;10404;51.468;6.762;2023-08-06T08:51:36;18.70;71.40
20492;DHT22;10404;51.468;6.762;2023-08-06T08:54:07;18.70;71.20
20492;DHT22;10404;51.468;6.762;2023-08-06T08:56:33;18.70;71.30
20492;DHT22;10404;51.468;6.762;2023-08-06T08:58:58;18.70;70.90
20492;DHT22;10404;51.468;6.762;2023-08-06T09:01:25;18.70;71.10
20492;DHT22;10404;51.468;6.762;2023-08-06T09:03:51;18.70;71.10
20492;DHT22;10404;51.468;6.762;2023-08-06T09:06:20;18.70;71.00
20492;DHT22;10404;51.468;6.762;2023-08-06T09:08:56;18.70;70.90
20492;DHT22;10404;51.468;6.762;2023-08-06T09:11:26;18.70;71.00
20492;DHT22;10404;51.468;6.762;2023-08-06T09:13:53;18.70;71.10
20492;DHT22;10404;51.468;6.762;2023-08-06T09:16:19;18.70;71.00
20492;DHT22;10404;51.468;6.762;2023-08-06T09:18:44;18.70;70.80
20492;DHT22;10404;51.468;6.762;2023-08-06T09:21:14;18.70;70.80
20492;DHT22;10404;51.468;6.762;2023-08-06T09:23:41;18.70;70.80
20492;DHT22;10404;51.468;6.762;2023-08-06T09:26:07;18.70;70.70
20492;DHT22;10404;51.468;6.762;2023-08-06T09:28:37;18.70;70.70
20492;DHT22;10404;51.468;6.762;2023-08-06T09:31:09;18.70;70.70
20492;DHT22;10404;51.468;6.762;2023-08-06T09:33:36;18.70;70.60
20492;DHT22;10404;51.468;6.762;2023-08-06T09:36:09;18.70;70.50
20492;DHT22;10404;51.468;6.762;2023-08-06T09:38:38;18.80;70.30
20492;DHT22;10404;51.468;6.762;2023-08-06T09:41:05;18.80;70.30
20492;DHT22;10404;51.468;6.762;2023-08-06T09:43:30;18.80;70.00
20492;DHT22;10404;51.468;6.762;2023-08-06T09:45:56;18.80;70.00
20492;DHT22;10404;51.468;6.762;2023-08-06T09:48:24;18.80;69.90
20492;DHT22;10404;51.468;6.762;2023-08-06T09:50:50;18.80;70.10
20492;DHT22;10404;51.468;6.762;2023-08-06T09:53:18;18.80;70.10
20492;DHT22;10404;51.468;6.762;2023-08-06T09:55:45;18.80;69.60
20492;DHT22;10404;51.468;6.762;2023-08-06T09:58:11;18.90;69.70
20492;DHT22;10404;51.468;6.762;2023-08-06T10:00:37;18.90;69.70
20492;DHT22;10404;51.468;6.762;2023-08-06T10:03:04;18.90;69.90
20492;DHT22;10404;51.468;6.762;2023-08-06T10:05:31;18.90;69.80
20492;DHT22;10404;51.468;6.762;2023-08-06T10:07:59;18.90;69.60
20492;DHT22;10404;51.468;6.762;2023-08-06T10:10:26;19.00;69.60
20492;DHT22;10404;51.468;6.762;2023-08-06T10:12:55;19.00;69.80
20492;DHT22;10404;51.468;6.762;2023-08-06T10:15:25;19.10;70.10
20492;DHT22;10404;51.468;6.762;2023-08-06T10:17:54;19.20;69.60
20492;DHT22;10404;51.468;6.762;2023-08-06T10:20:21;19.40;69.00
20492;DHT22;10404;51.468;6.762;2023-08-06T10:23:03;19.50;69.00
20492;DHT22;10404;51.468;6.762;2023-08-06T10:25:40;19.50;68.80
20492;DHT22;10404;51.468;6.762;2023-08-06T10:28:10;19.50;68.60
20492;DHT22;10404;51.468;6.762;2023-08-06T10:30:45;19.50;68.40
20492;DHT22;10404;51.468;6.762;2023-08-06T10:33:10;19.50;68.40
20492;DHT22;10404;51.468;6.762;2023-08-06T10:35:43;19.60;68.60
20492;DHT22;10404;51.468;6.762;2023-08-06T10:38:15;19.70;68.60
20492;DHT22;10404;51.468;6.762;2023-08-06T10:40:47;19.70;68.30
20492;DHT22;10404;51.468;6.762;2023-08-06T10:43:25;19.70;68.20
20492;DHT22;10404;51.468;6.762;2023-08-06T10:45:52;19.70;68.10
20492;DHT22;10404;51.468;6.762;2023-08-06T10:48:35;19.80;68.90
20492;DHT22;10404;51.468;6.762;2023-08-06T10:51:02;19.90;68.00
20492;DHT22;10404;51.468;6.762;2023-08-06T10:53:28;20.00;67.90
20492;DHT22;10404;51.468;6.762;2023-08-06T10:55:53;20.00;67.80
20492;DHT22;10404;51.468;6.762;2023-08-06T10:58:19;20.00;67.50
20492;DHT22;10404;51.468;6.762;2023-08-06T11:00:45;20.00;67.60
20492;DHT22;10404;51.468;6.762;2023-08-06T11:03:11;20.00;68.20
20492;DHT22;10404;51.468;6.762;2023-08-06T11:05:37;20.00;68.20
20492;DHT22;10404;51.468;6.762;2023-08-06T11:08:02;19.90;68.10
20492;DHT22;10404;51.468;6.762;2023-08-06T11:10:28;19.90;68.30
20492;DHT22;10404;51.468;6.762;2023-08-06T11:12:54;19.80;68.40
20492;DHT22;10404;51.468;6.762;2023-08-06T11:15:20;19.70;68.70
20492;DHT22;10404;51.468;6.762;2023-08-06T11:17:46;19.70;68.90
20492;DHT22;10404;51.468;6.762;2023-08-06T11:20:12;19.70;68.80
20492;DHT22;10404;51.468;6.762;2023-08-06T11:22:38;19.70;68.90
20492;DHT22;10404;51.468;6.762;2023-08-06T11:25:06;19.70;68.90
20492;DHT22;10404;51.468;6.762;2023-08-06T11:27:31;19.60;68.80
20492;DHT22;10404;51.468;6.762;2023-08-06T11:29:57;19.50;69.00
20492;DHT22;10404;51.468;6.762;2023-08-06T11:32:23;19.50;69.10
20492;DHT22;10404;51.468;6.762;2023-08-06T11:34:49;19.50;69.10
20492;DHT22;10404;51.468;6.762;2023-08-06T11:37:14;19.50;69.10
20492;DHT22;10404;51.468;6.762;2023-08-06T11:39:46;19.40;69.10
20492;DHT22;10404;51.468;6.762;2023-08-06T11:42:12;19.40;69.20
20492;DHT22;10404;51.468;6.762;2023-08-06T11:44:37;19.30;69.20
20492;DHT22;10404;51.468;6.762;2023-08-06T11:47:04;19.30;69.30
20492;DHT22;10404;51.468;6.762;2023-08-06T11:49:48;19.30;69.40
20492;DHT22;10404;51.468;6.762;2023-08-06T11:52:21;19.20;69.40
20492;DHT22;10404;51.468;6.762;2023-08-06T11:55:08;19.20;69.40
20492;DHT22;10404;51.468;6.762;2023-08-06T11:57:38;19.10;69.40
20492;DHT22;10404;51.468;6.762;2023-08-06T12:00:05;19.10;69.50
20492;DHT22;10404;51.468;6.762;2023-08-06T12:02:32;19.10;69.50
20492;DHT22;10404;51.468;6.762;2023-08-06T12:05:22;19.10;69.50
20492;DHT22;10404;51.468;6.762;2023-08-06T12:07:55;19.00;69.60
20492;DHT22;10404;51.468;6.762;2023-08-06T12:10:22;19.00;69.60
20492;DHT22;10404;51.468;6.762;2023-08-06T12:12:49;18.90;69.70
20492;DHT22;10404;51.468;6.762;2023-08-06T12:15:15;18.90;69.60
20492;DHT22;10404;51.468;6.762;2023-08-06T12:17:41;18.80;69.60
20492;DHT22;10404;51.468;6.762;2023-08-06T12:20:08;18.80;69.50
20492;DHT22;10404;51.468;6.762;2023-08-06T12:22:34;18.80;69.50
20492;DHT22;10404;51.468;6.762;2023-08-06T12:25:01;18.80;69.40
20492;DHT22;10404;51.468;6.762;2023-08-06T12:27:27;18.70;69.50
20492;DHT22;10404;51.468;6.762;2023-08-06T12:29:53;18.70;69.50
20492;DHT22;10404;51.468;6.762;2023-08-06T12:32:19;18.70;69.40
20492;DHT22;10404;51.468;6.762;2023-08-06T12:34:44;18.70;69.50
20492;DHT22;10404;51.468;6.762;2023-08-06T12:37:10;18.60;69.50
20492;DHT22;10404;51.468;6.762;2023-08-06T12:39:37;18.60;69.50
20492;DHT22;10404;51.468;6.762;2023-08-06T12:42:04;18.60;69.50
20492;DHT22;10404;51.468;6.762;2023-08-06T12:44:30;18.60;69.70
20492;DHT22;10404;51.468;6.762;2023-08-06T12:46:56;18.60;69.60
20492;DHT22;10404;51.468;6.762;2023-08-06T12:49:22;18.60;69.60
20492;DHT22;10404;51.468;6.762;2023-08-06T12:51:51;18.60;69.60
20492;DHT22;10404;51.468;6.762;2023-08-06T12:54:17;18.50;69.70
20492;DHT22;10404;51.468;6.762;2023-08-06T12:56:45;18.50;69.70
20492;DHT22;10404;51.468;6.762;2023-08-06T12:59:10;18.50;69.70
20492;DHT22;10404;51.468;6.762;2023-08-06T13:01:37;18.50;69.70
20492;DHT22;10404;51.468;6.762;2023-08-06T13:04:03;18.50;69.70
20492;DHT22;10404;51.468;6.762;2023-08-06T13:06:29;18.50;69.70
20492;DHT22;10404;51.468;6.762;2023-08-06T13:08:56;18.50;69.80
20492;DHT22;10404;51.468;6.762;2023-08-06T13:11:22;18.40;69.70
20492;DHT22;10404;51.468;6.762;2023-08-06T13:13:48;18.40;69.70
20492;DHT22;10404;51.468;6.762;2023-08-06T13:16:13;18.40;69.80
20492;DHT22;10404;51.468;6.762;2023-08-06T13:18:39;18.40;69.70
20492;DHT22;10404;51.468;6.762;2023-08-06T13:21:04;18.40;69.80
20492;DHT22;10404;51.468;6.762;2023-08-06T13:23:30;18.40;69.70
20492;DHT22;10404;51.468;6.762;2023-08-06T13:25:55;18.40;69.80
20492;DHT22;10404;51.468;6.762;2023-08-06T13:28:21;18.40;69.80
20492;DHT22;10404;51.468;6.762;2023-08-06T13:30:46;18.40;69.90
20492;DHT22;10404;51.468;6.762;2023-08-06T13:33:12;18.50;69.90
20492;DHT22;10404;51.468;6.762;2023-08-06T13:35:38;18.50;69.90
20492;DHT22;10404;51.468;6.762;2023-08-06T13:38:04;18.50;69.90
20492;DHT22;10404;51.468;6.762;2023-08-06T13:40:31;18.50;69.90
20492;DHT22;10404;51.468;6.762;2023-08-06T13:42:57;18.50;69.90
20492;DHT22;10404;51.468;6.762;2023-08-06T13:45:23;18.50;69.80
20492;DHT22;10404;51.468;6.762;2023-08-06T13:47:49;18.50;69.70
20492;DHT22;10404;51.468;6.762;2023-08-06T13:50:14;18.50;69.60
20492;DHT22;10404;51.468;6.762;2023-08-06T13:52:40;18.50;69.50
20492;DHT22;10404;51.468;6.762;2023-08-06T13:55:06;18.50;69.30
20492;DHT22;10404;51.468;6.762;2023-08-06T13:57:32;18.50;69.20
20492;DHT22;10404;51.468;6.762;2023-08-06T13:59:58;18.50;69.20
20492;DHT22;10404;51.468;6.762;2023-08-06T14:02:23;18.50;69.00
20492;DHT22;10404;51.468;6.762;2023-08-06T14:04:49;18.50;69.00
20492;DHT22;10404;51.468;6.762;2023-08-06T14:07:14;18.50;69.00
20492;DHT22;10404;51.468;6.762;2023-08-06T14:09:40;18.60;69.00
20492;DHT22;10404;51.468;6.762;2023-08-06T14:12:07;18.60;69.00
20492;DHT22;10404;51.468;6.762;2023-08-06T14:14:33;18.60;69.00
20492;DHT22;10404;51.468;6.762;2023-08-06T14:16:59;18.60;68.70
20492;DHT22;10404;51.468;6.762;2023-08-06T14:19:24;18.60;68.70
20492;DHT22;10404;51.468;6.762;2023-08-06T14:21:50;18.70;68.70
20492;DHT22;10404;51.468;6.762;2023-08-06T14:24:16;18.70;68.80
20492;DHT22;10404;51.468;6.762;2023-08-06T14:26:41;18.70;68.70
20492;DHT22;10404;51.468;6.762;2023-08-06T14:29:07;18.70;68.70
20492;DHT22;10404;51.468;6.762;2023-08-06T14:31:33;18.60;67.90
20492;DHT22;10404;51.468;6.762;2023-08-06T14:33:58;18.50;68.00
20492;DHT22;10404;51.468;6.762;2023-08-06T14:36:24;18.40;68.20
20492;DHT22;10404;51.468;6.762;2023-08-06T14:38:49;18.40;68.10
20492;DHT22;10404;51.468;6.762;2023-08-06T14:41:15;18.40;68.20
20492;DHT22;10404;51.468;6.762;2023-08-06T14:43:40;18.40;68.40
20492;DHT22;10404;51.468;6.762;2023-08-06T14:46:06;18.40;68.60
20492;DHT22;10404;51.468;6.762;2023-08-06T14:48:31;18.50;68.80
20492;DHT22;10404;51.468;6.762;2023-08-06T14:50:57;18.50;68.20
20492;DHT22;10404;51.468;6.762;2023-08-06T14:53:22;18.50;68.20
20492;DHT22;10404;51.468;6.762;2023-08-06T14:55:48;18.50;68.20
20492;DHT22;10404;51.468;6.762;2023-08-06T14:58:14;18.50;68.60
20492;DHT22;10404;51.468;6.762;2023-08-06T15:00:39;18.50;68.20
20492;DHT22;10404;51.468;6.762;2023-08-06T15:03:05;18.50;68.20
20492;DHT22;10404;51.468;6.762;2023-08-06T15:05:31;18.50;67.30
20492;DHT22;10404;51.468;6.762;2023-08-06T15:07:56;18.50;67.10
20492;DHT22;10404;51.468;6.762;2023-08-06T15:10:22;18.50;67.20
20492;DHT22;10404;51.468;6.762;2023-08-06T15:12:48;18.50;67.90
20492;DHT22;10404;51.468;6.762;2023-08-06T15:15:14;18.50;66.70
20492;DHT22;10404;51.468;6.762;2023-08-06T15:17:40;18.50;66.40
20492;DHT22;10404;51.468;6.762;2023-08-06T15:20:06;18.50;66.20
20492;DHT22;10404;51.468;6.762;2023-08-06T15:22:31;18.50;66.60
20492;DHT22;10404;51.468;6.762;2023-08-06T15:25:01;18.50;67.00
20492;DHT22;10404;51.468;6.762;2023-08-06T15:27:27;18.50;66.40
20492;DHT22;10404;51.468;6.762;2023-08-06T15:29:53;18.50;66.30
20492;DHT22;10404;51.468;6.762;2023-08-06T15:32:18;18.60;66.70